Time;durP1;ratioP1;P1;durP2;ratioP2;P2;SDS_P1;SDS_P2;PMS_P1;PMS_P2;Temp;Humidity;BMP_temperature;BMP_pressure;BME280_temperature;BME280_humidity;BME280_pressure;Samples;Min_cycle;Max_cycle;Signal;HPM_P1;HPM_P2
2024/01/20 00:00:25;;;;;;;0.00;0.00;;;;;;;-0.84;77.86;101188.47;4981343;28;20429;-76
2024/01/20 00:02:51;;;;;;;0.00;0.00;;;;;;;-0.74;78.58;101197.16;5001203;28;20033;-75
2024/01/20 00:05:16;;;;;;;0.10;0.10;;;;;;;-0.64;78.49;101221.97;4996943;28;20026;-76
2024/01/20 00:07:42;;;;;;;0.00;0.00;;;;;;;-0.72;78.62;101205.88;4986773;28;20018;-77
2024/01/20 00:10:10;;;;;;;0.00;0.00;;;;;;;-0.85;78.95;101189.47;5003076;28;20023;-76
2024/01/20 00:12:39;;;;;;;0.00;0.00;;;;;;;-0.86;78.32;101195.84;4987816;28;20469;-77
2024/01/20 00:15:09;;;;;;;0.00;0.00;;;;;;;-0.89;79.10;101189.81;4985731;28;20026;-76
2024/01/20 00:17:36;;;;;;;0.00;0.00;;;;;;;-0.80;80.06;101197.88;4977932;28;20057;-76
2024/01/20 00:20:03;;;;;;;0.00;0.00;;;;;;;-0.77;79.77;101198.34;4980348;28;20053;-75
2024/01/20 00:22:28;;;;;;;0.00;0.00;;;;;;;-0.78;79.69;101187.78;4978532;28;20038;-78
2024/01/20 00:24:53;;;;;;;0.00;0.00;;;;;;;-0.74;80.26;101197.16;4970254;28;20030;-76
2024/01/20 00:27:19;;;;;;;0.00;0.00;;;;;;;-0.74;79.77;101202.53;5006868;28;20022;-76
2024/01/20 00:29:44;;;;;;;0.10;0.10;;;;;;;-0.78;80.69;101202.03;4968179;28;20025;-76
2024/01/20 00:32:10;;;;;;;0.10;0.10;;;;;;;-0.83;80.27;101192.81;4972285;28;20125;-75
2024/01/20 00:34:35;;;;;;;0.10;0.10;;;;;;;-0.88;80.47;101191.50;4973419;28;20048;-77
2024/01/20 00:37:03;;;;;;;0.00;0.00;;;;;;;-1.00;81.04;101182.13;4970369;28;20518;-76
2024/01/20 00:39:29;;;;;;;0.10;0.10;;;;;;;-1.06;80.97;101188.19;4982485;28;20062;-76
2024/01/20 00:41:54;;;;;;;0.10;0.10;;;;;;;-1.06;82.27;101193.53;4961202;28;20035;-76
2024/01/20 00:44:22;;;;;;;0.10;0.10;;;;;;;-1.15;82.12;101173.94;4982893;28;20041;-77
2024/01/20 00:46:47;;;;;;;0.10;0.10;;;;;;;-1.12;81.57;101188.88;4980986;28;20034;-74
2024/01/20 00:49:13;;;;;;;0.10;0.10;;;;;;;-1.18;82.29;101187.69;4965246;28;20379;-74
2024/01/20 00:51:38;;;;;;;0.00;0.00;;;;;;;-1.20;82.74;101197.75;4983383;28;20460;-73
2024/01/20 00:54:04;;;;;;;0.10;0.10;;;;;;;-1.23;83.95;101179.31;4970370;28;20111;-73
2024/01/20 00:56:30;;;;;;;0.10;0.10;;;;;;;-1.18;83.66;101186.84;4969842;28;20385;-73
2024/01/20 00:58:55;;;;;;;0.00;0.00;;;;;;;-1.10;84.12;101192.19;4980190;28;20026;-74
2024/01/20 01:01:21;;;;;;;0.10;0.10;;;;;;;-1.02;83.45;101194.03;4981817;28;20044;-74
2024/01/20 01:03:46;;;;;;;0.10;0.10;;;;;;;-0.99;84.78;101183.81;5003307;28;20038;-73
2024/01/20 01:06:12;;;;;;;0.10;0.10;;;;;;;-0.91;84.47;101183.75;4962952;28;20061;-75
2024/01/20 01:08:37;;;;;;;0.10;0.10;;;;;;;-0.76;84.62;101191.13;4963204;28;20085;-72
2024/01/20 01:11:03;;;;;;;0.00;0.00;;;;;;;-0.70;85.13;101187.75;4979675;28;20049;-74
2024/01/20 01:13:28;;;;;;;0.10;0.10;;;;;;;-0.54;85.54;101203.81;4989008;28;20026;-76
2024/01/20 01:15:54;;;;;;;0.10;0.10;;;;;;;-0.50;85.09;101203.47;4963058;28;20124;-74
2024/01/20 01:18:22;;;;;;;0.00;0.00;;;;;;;-0.60;85.54;101192.91;4966050;28;20054;-74
2024/01/20 01:20:47;;;;;;;0.10;0.10;;;;;;;-0.54;85.96;101182.31;4965234;28;20069;-74
2024/01/20 01:23:18;;;;;;;0.10;0.10;;;;;;;-0.35;85.47;101207.09;4965491;28;20034;-74
2024/01/20 01:25:44;;;;;;;0.00;0.00;;;;;;;-0.27;85.96;101209.72;4972766;28;20041;-74
2024/01/20 01:28:09;;;;;;;0.10;0.10;;;;;;;-0.21;85.81;101214.41;4963378;28;20005;-77
2024/01/20 01:30:34;;;;;;;0.10;0.10;;;;;;;-0.08;85.70;101203.09;4978284;28;20030;-75
2024/01/20 01:33:00;;;;;;;0.00;0.00;;;;;;;-0.03;86.35;101205.25;4969262;28;20522;-77
2024/01/20 01:35:25;;;;;;;0.00;0.00;;;;;;;0.10;86.34;101205.53;4993452;28;20097;-76
2024/01/20 01:37:51;;;;;;;0.00;0.00;;;;;;;0.09;86.02;101194.91;4950902;28;20033;-75
2024/01/20 01:40:16;;;;;;;0.10;0.10;;;;;;;0.12;86.14;101179.28;5000294;28;20161;-78
2024/01/20 01:42:42;;;;;;;0.00;0.00;;;;;;;0.10;85.47;101167.88;4996704;28;20037;-78
2024/01/20 01:45:08;;;;;;;0.00;0.00;;;;;;;0.19;85.90;101197.38;4982249;28;20022;-78
2024/01/20 01:47:33;;;;;;;0.00;0.00;;;;;;;0.17;85.18;101200.25;4997862;28;20431;-76
2024/01/20 01:49:59;;;;;;;0.00;0.00;;;;;;;0.11;85.75;101201.78;5010759;28;20038;-77
2024/01/20 01:52:26;;;;;;;0.10;0.10;;;;;;;0.11;86.19;101192.91;4986728;28;20084;-78
2024/01/20 01:54:52;;;;;;;0.10;0.10;;;;;;;0.09;85.60;101197.59;4996363;28;20121;-78
2024/01/20 01:57:18;;;;;;;0.10;0.10;;;;;;;0.01;86.05;101193.13;4991659;28;20464;-78
2024/01/20 01:59:45;;;;;;;0.00;0.00;;;;;;;0.03;85.71;101185.72;4984247;28;20061;-79
2024/01/20 02:02:10;;;;;;;0.00;0.00;;;;;;;0.00;86.46;101183.41;4989513;28;20034;-78
2024/01/20 02:04:36;;;;;;;0.10;0.10;;;;;;;0.09;86.19;101193.06;4982828;28;20030;-77
2024/01/20 02:07:02;;;;;;;0.10;0.10;;;;;;;0.12;86.66;101192.72;5007540;28;20041;-76
2024/01/20 02:09:31;;;;;;;0.10;0.10;;;;;;;0.18;87.02;101201.94;4993013;28;20027;-77
2024/01/20 02:11:57;;;;;;;0.00;0.00;;;;;;;0.16;86.00;101202.09;4985348;28;20050;-78
2024/01/20 02:14:23;;;;;;;0.00;0.00;;;;;;;0.12;86.94;101198.09;5014730;28;20109;-76
2024/01/20 02:16:49;;;;;;;0.00;0.00;;;;;;;0.05;86.53;101191.75;4987844;28;20034;-77
2024/01/20 02:19:14;;;;;;;0.00;0.00;;;;;;;0.08;86.72;101196.78;4964972;28;20109;-77
2024/01/20 02:21:41;;;;;;;0.00;0.00;;;;;;;0.07;86.44;101195.09;4974461;28;20037;-79
2024/01/20 02:24:09;;;;;;;0.00;0.00;;;;;;;0.08;87.57;101196.78;4961902;28;20030;-79
2024/01/20 02:26:35;;;;;;;0.00;0.00;;;;;;;0.04;87.35;101190.06;5010025;28;20485;-74
2024/01/20 02:29:00;;;;;;;0.10;0.10;;;;;;;-0.08;86.71;101159.22;4977294;28;20040;-74
2024/01/20 02:31:26;;;;;;;0.00;0.00;;;;;;;0.09;87.27;101198.47;4987734;28;20109;-76
2024/01/20 02:33:52;;;;;;;0.00;0.00;;;;;;;0.11;87.70;101191.03;4987545;28;20027;-78
2024/01/20 02:36:17;;;;;;;0.00;0.00;;;;;;;0.10;87.09;101189.38;4959247;28;20037;-80
2024/01/20 02:38:48;;;;;;;0.00;0.00;;;;;;;0.14;86.83;101185.28;4983324;28;20052;-78
2024/01/20 02:41:13;;;;;;;0.10;0.10;;;;;;;0.01;87.63;101152.78;4969028;28;20424;-77
2024/01/20 02:43:38;;;;;;;0.00;0.00;;;;;;;0.07;87.69;101176.25;4968180;28;20160;-76
2024/01/20 02:46:04;;;;;;;0.00;0.00;;;;;;;0.14;88.05;101179.91;4985092;28;20263;-77
2024/01/20 02:48:30;;;;;;;0.00;0.00;;;;;;;0.19;87.84;101192.00;4973241;28;20041;-76
2024/01/20 02:50:55;;;;;;;0.00;0.00;;;;;;;0.14;88.09;101190.66;4955438;28;20078;-76
2024/01/20 02:53:22;;;;;;;0.10;0.10;;;;;;;0.22;87.99;101186.25;4976050;28;20033;-72
2024/01/20 02:55:48;;;;;;;0.08;0.08;;;;;;;0.20;88.26;101182.91;4987862;28;20038;-75
2024/01/20 02:58:13;;;;;;;0.00;0.00;;;;;;;0.15;88.04;101154.69;4959594;28;20400;-74
2024/01/20 03:00:39;;;;;;;0.00;0.00;;;;;;;0.27;87.42;101181.19;4961325;23;20077;-76
2024/01/20 03:03:39;;;;;;;0.00;0.00;;;;;;;0.00;87.41;101140.38;4986127;28;20093;-75
2024/01/20 03:05:57;;;;;;;0.10;0.10;;;;;;;0.08;88.59;101151.06;4974843;28;20049;-74
2024/01/20 03:08:22;;;;;;;0.10;0.10;;;;;;;0.11;88.58;101153.38;4971310;28;20669;-77
2024/01/20 03:10:47;;;;;;;0.10;0.10;;;;;;;0.07;87.82;101148.53;4950612;28;20031;-75
2024/01/20 03:13:13;;;;;;;0.10;0.10;;;;;;;0.11;88.17;101163.31;4944682;28;20087;-75
2024/01/20 03:15:40;;;;;;;0.10;0.10;;;;;;;0.10;88.77;101161.63;4970165;28;20061;-74
2024/01/20 03:18:10;;;;;;;0.00;0.00;;;;;;;0.22;88.41;101186.25;4953803;28;20031;-73
2024/01/20 03:20:35;;;;;;;0.00;0.00;;;;;;;0.11;88.04;101169.50;4968045;28;20031;-75
2024/01/20 03:23:01;;;;;;;0.00;0.00;;;;;;;0.03;87.89;101158.84;4969897;28;20031;-75
2024/01/20 03:25:29;;;;;;;0.08;0.08;;;;;;;0.19;88.80;101184.78;4962927;28;20691;-75
2024/01/20 03:27:58;;;;;;;0.10;0.10;;;;;;;0.03;88.07;101161.53;4951955;28;20126;-74
2024/01/20 03:30:23;;;;;;;0.10;0.10;;;;;;;0.26;88.80;101199.16;4956803;28;20014;-74
2024/01/20 03:32:50;;;;;;;0.10;0.10;;;;;;;0.27;88.10;101203.53;4971564;28;20347;-74
2024/01/20 03:35:19;;;;;;;0.00;0.00;;;;;;;0.11;88.92;101179.44;4963510;28;20027;-77
2024/01/20 03:37:44;;;;;;;0.00;0.00;;;;;;;0.07;88.62;101167.38;4980611;28;20100;-78
2024/01/20 03:40:10;;;;;;;0.10;0.10;;;;;;;0.27;89.22;101190.09;4973054;28;20094;-79
2024/01/20 03:42:35;;;;;;;0.00;0.00;;;;;;;0.10;89.57;101157.09;4968109;28;20488;-77
2024/01/20 03:45:01;;;;;;;0.00;0.00;;;;;;;0.33;89.02;101183.16;4976245;28;20046;-76
2024/01/20 03:47:26;;;;;;;0.00;0.00;;;;;;;0.07;89.11;101146.69;4970090;28;20030;-73
2024/01/20 03:49:52;;;;;;;0.10;0.10;;;;;;;0.23;88.69;101167.25;4969333;28;20026;-72
2024/01/20 03:52:17;;;;;;;0.00;0.00;;;;;;;0.21;89.01;101168.47;4960396;28;20035;-72
2024/01/20 03:54:43;;;;;;;0.00;0.00;;;;;;;0.13;89.45;101161.25;4968931;28;20030;-72
2024/01/20 03:57:08;;;;;;;0.00;0.00;;;;;;;0.19;89.51;101170.47;4959654;28;20052;-73
2024/01/20 03:59:34;;;;;;;0.00;0.00;;;;;;;0.21;89.09;101174.66;4966582;28;20118;-73
2024/01/20 04:02:12;;;;;;;0.10;0.10;;;;;;;0.16;88.82;101164.44;4978226;28;20529;-74
2024/01/20 04:04:37;;;;;;;0.10;0.10;;;;;;;0.15;89.71;101154.69;4969589;28;20022;-73
2024/01/20 04:07:03;;;;;;;0.10;0.10;;;;;;;0.13;89.10;101167.50;4978681;28;20089;-74
2024/01/20 04:09:29;;;;;;;0.00;0.00;;;;;;;0.19;89.51;101165.09;4970680;28;20046;-76
2024/01/20 04:11:54;;;;;;;0.00;0.00;;;;;;;0.28;89.05;101180.19;4956959;28;20349;-74
2024/01/20 04:14:20;;;;;;;0.10;0.10;;;;;;;0.30;88.71;101172.75;4965755;28;20021;-74
2024/01/20 04:16:45;;;;;;;0.10;0.10;;;;;;;0.30;88.98;101168.19;4951560;28;21168;-74
2024/01/20 04:19:13;;;;;;;0.00;0.00;;;;;;;0.34;88.33;101163.31;4959372;28;20070;-73
2024/01/20 04:21:39;;;;;;;0.00;0.00;;;;;;;0.24;88.74;101151.97;4961276;28;20110;-74
2024/01/20 04:24:05;;;;;;;0.10;0.10;;;;;;;0.28;88.46;101142.50;4962262;28;20065;-75
2024/01/20 04:26:31;;;;;;;0.00;0.00;;;;;;;0.36;88.20;101155.88;4987563;28;20030;-74
2024/01/20 04:28:56;;;;;;;0.00;0.00;;;;;;;0.36;88.02;101155.88;4953905;28;20046;-73
2024/01/20 04:31:21;;;;;;;0.10;0.10;;;;;;;0.56;88.59;101166.16;4966523;28;20512;-74
2024/01/20 04:33:47;;;;;;;0.10;0.10;;;;;;;0.48;88.21;101149.06;4949308;28;20026;-74
2024/01/20 04:36:12;;;;;;;0.00;0.00;;;;;;;0.40;88.19;101132.16;4977980;28;20042;-73
2024/01/20 04:38:39;;;;;;;0.10;0.10;;;;;;;0.57;88.09;101154.34;4974681;28;20102;-74
2024/01/20 04:41:04;;;;;;;0.10;0.10;;;;;;;0.63;87.55;101161.72;4959446;28;20019;-75
2024/01/20 04:43:30;;;;;;;0.00;0.00;;;;;;;0.52;87.86;101150.34;4961344;28;20073;-76
2024/01/20 04:45:56;;;;;;;0.00;0.00;;;;;;;0.59;86.82;101166.63;4977076;28;20031;-74
2024/01/20 04:48:21;;;;;;;0.10;0.10;;;;;;;0.52;87.41;101161.13;4967419;28;20035;-76
2024/01/20 04:50:46;;;;;;;0.00;0.00;;;;;;;0.51;87.10;101162.16;4958868;28;20936;-74
2024/01/20 04:53:12;;;;;;;0.10;0.10;;;;;;;0.49;87.03;101171.44;4978241;28;20026;-76
2024/01/20 04:55:37;;;;;;;0.10;0.10;;;;;;;0.31;87.46;101132.22;4970282;28;20034;-74
2024/01/20 04:58:03;;;;;;;0.00;0.00;;;;;;;0.50;87.82;101157.78;4941096;28;20026;-74
2024/01/20 05:00:36;;;;;;;0.10;0.10;;;;;;;0.60;87.96;101162.06;4950641;28;20128;-74
2024/01/20 05:03:03;;;;;;;0.00;0.00;;;;;;;0.66;87.70;101166.75;4962954;28;20034;-75
2024/01/20 05:05:32;;;;;;;0.10;0.10;;;;;;;0.64;87.85;101150.78;4980369;28;20380;-74
2024/01/20 05:07:58;;;;;;;0.00;0.00;;;;;;;0.75;86.98;101154.88;4964517;28;21930;-75
2024/01/20 05:10:24;;;;;;;0.00;0.00;;;;;;;0.75;87.11;101149.47;4978754;28;20018;-74
2024/01/20 05:13:40;;;;;;;;;;;;;;;;;;;;;
2024/01/20 05:16:11;;;;;;;0.00;0.00;;;;;;;0.86;86.60;101149.03;4975017;28;20117;-78
2024/01/20 05:18:37;;;;;;;0.00;0.00;;;;;;;0.96;86.87;101158.69;4976676;28;20083;-77
2024/01/20 05:21:03;;;;;;;0.00;0.00;;;;;;;0.86;86.84;101130.19;4975895;28;20118;-78
2024/01/20 05:23:35;;;;;;;0.00;0.00;;;;;;;0.83;86.75;101124.31;4966423;28;20125;-77
2024/01/20 05:26:01;;;;;;;0.00;0.00;;;;;;;1.07;85.92;101152.84;4973253;28;20449;-77
2024/01/20 05:28:27;;;;;;;0.05;0.05;;;;;;;1.08;85.95;101148.28;4977031;28;20065;-77
2024/01/20 05:30:52;;;;;;;0.00;0.00;;;;;;;1.04;85.88;101134.38;4975640;28;20027;-77
2024/01/20 05:33:18;;;;;;;0.00;0.00;;;;;;;1.10;85.50;101125.53;4968327;28;20034;-76
2024/01/20 05:35:43;;;;;;;0.00;0.00;;;;;;;1.27;85.14;101153.16;4959824;28;20015;-78
2024/01/20 05:38:11;;;;;;;0.00;0.00;;;;;;;1.07;85.05;101120.53;4959649;28;20036;-77
2024/01/20 05:40:39;;;;;;;0.10;0.10;;;;;;;1.12;84.84;101126.19;4977107;28;20034;-77
2024/01/20 05:43:12;;;;;;;0.00;0.00;;;;;;;1.37;84.63;101163.63;4978175;28;20436;-78
2024/01/20 05:45:37;;;;;;;0.00;0.00;;;;;;;1.16;84.62;101138.25;4964202;28;20040;-77
2024/01/20 05:48:03;;;;;;;0.00;0.00;;;;;;;1.25;84.79;101165.13;4974598;28;20038;-77
2024/01/20 05:50:29;;;;;;;0.00;0.00;;;;;;;1.08;84.67;101132.13;4960185;28;20081;-77
2024/01/20 05:52:54;;;;;;;0.00;0.00;;;;;;;1.21;84.72;101176.28;4979102;28;20025;-78
2024/01/20 05:55:20;;;;;;;0.00;0.00;;;;;;;1.02;84.94;101150.72;4950394;28;20058;-76
2024/01/20 05:57:48;;;;;;;0.00;0.00;;;;;;;1.13;85.22;101165.59;4977624;28;20030;-77
2024/01/20 06:00:23;;;;;;;0.00;0.00;;;;;;;1.05;85.15;101154.88;4965229;28;20155;-75
2024/01/20 06:02:48;;;;;;;0.00;0.00;;;;;;;1.13;84.97;101168.28;4977453;28;20041;-74
2024/01/20 06:05:13;;;;;;;0.00;0.00;;;;;;;1.16;85.07;101184.06;4968149;28;20026;-74
2024/01/20 06:07:48;;;;;;;0.10;0.10;;;;;;;1.17;84.64;101177.66;4962839;28;20487;-73
2024/01/20 06:10:16;;;;;;;0.00;0.00;;;;;;;1.14;84.74;101183.44;4958386;28;20034;-73
2024/01/20 06:12:42;;;;;;;0.00;0.00;;;;;;;1.03;85.21;101163.16;4957876;28;20651;-73
2024/01/20 06:15:08;;;;;;;0.00;0.00;;;;;;;1.13;85.14;101184.44;4967421;28;20110;-73
2024/01/20 06:17:33;;;;;;;0.00;0.00;;;;;;;1.06;84.80;101172.72;4969803;28;20035;-74
2024/01/20 06:19:58;;;;;;;0.00;0.00;;;;;;;1.13;84.99;101179.06;4939807;28;20448;-74
2024/01/20 06:22:24;;;;;;;0.00;0.00;;;;;;;1.18;85.43;101186.56;4959346;28;20022;-74
2024/01/20 06:24:52;;;;;;;0.10;0.10;;;;;;;1.19;84.93;101183.69;4941856;28;20027;-75
2024/01/20 06:27:17;;;;;;;0.00;0.00;;;;;;;1.16;84.58;101175.97;4958650;28;20062;-73
2024/01/20 06:29:42;;;;;;;0.00;0.00;;;;;;;1.21;85.01;101187.06;4981417;28;20026;-73
2024/01/20 06:32:08;;;;;;;0.10;0.10;;;;;;;1.23;84.81;101192.25;4962467;28;20030;-73
2024/01/20 06:34:33;;;;;;;0.00;0.00;;;;;;;1.13;84.56;101164.75;4957567;28;20069;-75
2024/01/20 06:36:59;;;;;;;0.00;0.00;;;;;;;1.18;84.39;101165.03;4974490;28;20030;-74
2024/01/20 06:39:24;;;;;;;0.00;0.00;;;;;;;1.34;83.85;101178.31;4972226;28;20023;-73
2024/01/20 06:41:50;;;;;;;0.08;0.08;;;;;;;1.32;84.06;101169.56;4988547;28;20059;-77
2024/01/20 06:44:16;;;;;;;0.10;0.10;;;;;;;1.46;83.95;101184.06;4977881;28;20026;-74
2024/01/20 06:46:42;;;;;;;0.00;0.00;;;;;;;1.51;83.84;101178.13;4966337;28;20034;-74
2024/01/20 06:49:12;;;;;;;0.00;0.00;;;;;;;1.62;83.20;101190.28;4966682;28;20035;-74
2024/01/20 06:51:38;;;;;;;0.00;0.00;;;;;;;1.70;83.16;101184.78;4972841;28;20034;-74
2024/01/20 06:54:03;;;;;;;0.00;0.00;;;;;;;1.73;82.99;101181.72;4954446;28;20031;-74
2024/01/20 06:56:29;;;;;;;0.10;0.10;;;;;;;1.73;82.66;101162.84;4957815;28;20058;-74
2024/01/20 06:58:58;;;;;;;0.00;0.00;;;;;;;1.77;81.90;101164.13;4953109;28;20035;-75
2024/01/20 07:01:24;;;;;;;0.00;0.00;;;;;;;1.76;82.35;101157.06;4957600;28;20394;-75
2024/01/20 07:03:49;;;;;;;0.00;0.00;;;;;;;1.79;81.75;101162.06;4947551;28;20014;-73
2024/01/20 07:06:15;;;;;;;0.00;0.00;;;;;;;1.80;82.04;101152.97;4939720;28;20035;-74
2024/01/20 07:08:42;;;;;;;0.00;0.00;;;;;;;1.85;81.71;101161.31;4967726;28;20084;-74
2024/01/20 07:11:08;;;;;;;0.00;0.00;;;;;;;1.85;81.82;101155.06;4968134;28;20041;-73
2024/01/20 07:13:34;;;;;;;0.00;0.00;;;;;;;1.86;82.04;101159.47;4941649;28;20807;-73
2024/01/20 07:16:00;;;;;;;0.10;0.10;;;;;;;1.84;81.87;101159.66;4959042;28;20152;-72
2024/01/20 07:18:25;;;;;;;0.00;0.00;;;;;;;1.67;81.75;101131.25;4976958;28;20046;-73
2024/01/20 07:20:52;;;;;;;0.00;0.00;;;;;;;1.70;81.82;101141.63;4972612;28;20035;-73
2024/01/20 07:23:17;;;;;;;0.10;0.10;;;;;;;1.67;81.35;101142.03;4965542;28;21821;-74
2024/01/20 07:25:43;;;;;;;0.00;0.00;;;;;;;1.83;82.04;101174.16;4957183;28;20125;-74
2024/01/20 07:28:11;;;;;;;0.00;0.00;;;;;;;1.66;82.13;101140.34;4942103;28;20158;-74
2024/01/20 07:30:36;;;;;;;0.00;0.00;;;;;;;1.80;82.02;101166.44;4957681;28;20177;-74
2024/01/20 07:33:02;;;;;;;0.00;0.00;;;;;;;1.86;81.80;101167.53;4979986;28;20489;-73
2024/01/20 07:35:27;;;;;;;0.00;0.00;;;;;;;1.87;81.65;101169.19;4941096;28;20363;-73
2024/01/20 07:37:53;;;;;;;0.10;0.10;;;;;;;1.82;81.63;101161.69;4977822;28;20144;-73
2024/01/20 07:40:18;;;;;;;0.00;0.00;;;;;;;1.82;81.51;101161.69;4947983;28;20426;-74
2024/01/20 07:42:46;;;;;;;0.10;0.10;;;;;;;1.87;81.78;101171.91;4952141;28;20098;-74
2024/01/20 07:45:11;;;;;;;0.10;0.10;;;;;;;1.77;81.98;101153.34;4954852;28;20551;-72
2024/01/20 07:47:37;;;;;;;0.00;0.00;;;;;;;1.83;81.73;101157.97;4968713;28;20084;-75
2024/01/20 07:50:02;;;;;;;0.10;0.10;;;;;;;1.71;81.16;101144.16;4941443;28;20038;-75
2024/01/20 07:52:30;;;;;;;0.00;0.00;;;;;;;1.72;81.53;101139.56;4969079;28;20026;-76
2024/01/20 07:54:58;;;;;;;0.00;0.00;;;;;;;1.74;81.75;101143.75;4970779;28;20421;-73
2024/01/20 07:57:23;;;;;;;0.00;0.00;;;;;;;1.76;81.52;101132.78;4955146;28;20085;-73
2024/01/20 07:59:49;;;;;;;0.00;0.00;;;;;;;1.90;81.77;101169.66;4973149;28;20026;-75
2024/01/20 08:02:18;;;;;;;0.00;0.00;;;;;;;1.84;81.86;101156.09;4976579;28;20089;-79
2024/01/20 08:04:50;;;;;;;0.00;0.00;;;;;;;1.95;81.81;101182.59;4956628;28;20049;-78
2024/01/20 08:07:48;;;;;;;0.10;0.10;;;;;;;1.68;81.87;101122.09;4936787;28;20078;-79
2024/01/20 08:10:40;;;;;;;0.00;0.00;;;;;;;1.88;81.43;101149.31;4953170;28;20029;-78
2024/01/20 08:13:31;;;;;;;0.00;0.00;;;;;;;2.12;81.21;101175.09;4978502;28;20053;-77
2024/01/20 08:15:59;;;;;;;0.00;0.00;;;;;;;2.20;81.06;101168.72;4970585;28;20722;-76
2024/01/20 08:18:34;;;;;;;;;;;;;;;;;;;;;
2024/01/20 08:21:33;;;;;;;0.00;0.00;;;;;;;2.04;80.27;101148.22;4974489;28;20031;-75
2024/01/20 08:24:02;;;;;;;0.00;0.00;;;;;;;2.05;80.75;101139.13;4966020;28;20106;-76
2024/01/20 08:27:08;;;;;;;0.00;0.00;;;;;;;1.92;79.96;101113.66;4972327;28;20429;-75
2024/01/20 08:29:42;;;;;;;0.00;0.00;;;;;;;2.14;80.42;101146.03;4967629;28;20046;-79
2024/01/20 08:32:08;;;;;;;;;;;;;;;2.38;80.57;101171.81;4972245;28;20473;-76
2024/01/20 08:34:35;;;;;;;0.00;0.00;;;;;;;2.40;80.23;101168.94;4953790;28;19918;-79
2024/01/20 08:37:11;;;;;;;0.10;0.10;;;;;;;2.44;80.11;101164.81;4960822;28;20070;-77
2024/01/20 08:39:36;;;;;;;0.10;0.10;;;;;;;2.48;80.44;101166.06;4981935;28;20375;-76
2024/01/20 08:42:19;;;;;;;;;;;;;;;;;;;;;
2024/01/20 08:44:49;;;;;;;0.00;0.00;;;;;;;2.63;79.55;101184.91;4950824;28;20082;-77
2024/01/20 08:47:15;;;;;;;0.00;0.00;;;;;;;2.62;79.91;101178.66;4967158;28;20500;-78
2024/01/20 08:49:40;;;;;;;0.00;0.00;;;;;;;2.54;80.01;101169.88;4974792;28;20077;-76
2024/01/20 08:52:06;;;;;;;0.00;0.00;;;;;;;2.44;79.49;101149.44;4969525;28;20031;-78
2024/01/20 08:54:32;;;;;;;0.00;0.00;;;;;;;2.45;80.08;101134.06;4968450;28;20029;-77
2024/01/20 08:56:57;;;;;;;0.00;0.00;;;;;;;2.81;79.78;101184.44;4986197;28;20034;-76
2024/01/20 08:59:23;;;;;;;0.00;0.00;;;;;;;2.85;79.57;101169.50;4980260;28;20019;-77
2024/01/20 09:02:06;;;;;;;0.00;0.00;;;;;;;2.96;79.42;101168.13;4977601;28;20058;-76
2024/01/20 09:04:31;;;;;;;0.00;0.00;;;;;;;3.10;79.14;101163.66;4961403;28;20026;-78
2024/01/20 09:06:57;;;;;;;0.00;0.00;;;;;;;3.26;79.33;101171.44;4985113;28;20154;-75
2024/01/20 09:09:23;;;;;;;0.00;0.00;;;;;;;3.25;78.40;101156.22;4957812;28;20147;-76
2024/01/20 09:11:48;;;;;;;0.00;0.00;;;;;;;3.35;78.08;101161.28;4965621;28;20038;-76
2024/01/20 09:14:17;;;;;;;0.00;0.00;;;;;;;3.53;78.05;101178.84;4965425;28;20027;-76
2024/01/20 09:16:43;;;;;;;0.00;0.00;;;;;;;3.55;77.82;101157.81;4965150;28;20571;-76
2024/01/20 09:19:17;;;;;;;0.00;0.00;;;;;;;3.72;77.60;101161.03;4948151;28;20121;-76
2024/01/20 09:21:46;;;;;;;0.00;0.00;;;;;;;3.69;77.46;101147.91;4952310;28;20030;-75
2024/01/20 09:24:12;;;;;;;0.00;0.00;;;;;;;3.86;77.36;101162.75;4982641;28;20060;-77
2024/01/20 09:26:37;;;;;;;0.00;0.00;;;;;;;3.95;76.61;101166.94;4947326;28;20058;-76
2024/01/20 09:29:07;;;;;;;0.00;0.00;;;;;;;4.01;76.00;101171.50;4977547;28;20026;-76
2024/01/20 09:31:35;;;;;;;0.00;0.00;;;;;;;4.04;76.53;101169.47;4970748;28;20068;-77
2024/01/20 09:34:05;;;;;;;0.00;0.00;;;;;;;4.06;76.30;101161.97;4961536;28;20435;-76
2024/01/20 09:36:31;;;;;;;0.00;0.00;;;;;;;4.09;76.08;101150.72;4962067;28;20006;-76
2024/01/20 09:39:12;;;;;;;;;;;;;;;;;;;;;
2024/01/20 09:41:39;;;;;;;0.00;0.00;;;;;;;4.32;75.48;101178.28;4974096;28;20030;-75
2024/01/20 09:44:07;;;;;;;0.00;0.00;;;;;;;4.17;75.53;101137.00;4971470;28;20698;-75
2024/01/20 09:46:33;;;;;;;0.08;0.08;;;;;;;4.48;75.55;101163.50;4980582;28;20065;-77
2024/01/20 09:49:00;;;;;;;0.00;0.00;;;;;;;4.54;74.98;101165.38;4983958;28;20688;-76
2024/01/20 09:51:28;;;;;;;0.00;0.00;;;;;;;4.61;74.59;101167.25;4990945;28;20622;-77
2024/01/20 09:53:58;;;;;;;0.00;0.00;;;;;;;4.62;74.37;101160.78;4984571;28;20039;-76
2024/01/20 09:56:27;;;;;;;0.00;0.00;;;;;;;4.61;74.54;101138.25;4995160;28;20746;-77
2024/01/20 09:58:56;;;;;;;0.00;0.00;;;;;;;4.77;73.93;101152.44;4975198;28;20022;-77
2024/01/20 10:01:29;;;;;;;0.00;0.00;;;;;;;4.74;73.59;101144.72;4958639;28;20073;-76
2024/01/20 10:04:17;;;;;;;0.00;0.00;;;;;;;4.95;72.81;101171.63;4966047;28;20030;-76
2024/01/20 10:06:51;;;;;;;0.00;0.00;;;;;;;4.93;71.54;101149.28;4988288;28;20022;-76
2024/01/20 10:09:17;;;;;;;0.10;0.10;;;;;;;5.05;70.83;101155.75;4972141;28;20026;-77
2024/01/20 10:11:45;;;;;;;0.00;0.00;;;;;;;5.22;71.31;101147.16;4988886;28;20026;-76
2024/01/20 10:14:13;;;;;;;0.00;0.00;;;;;;;5.52;70.28;101165.63;4967263;28;20025;-76
2024/01/20 10:16:41;;;;;;;0.00;0.00;;;;;;;5.55;69.25;101154.34;4948825;28;20026;-75
2024/01/20 10:19:06;;;;;;;0.00;0.00;;;;;;;5.66;68.16;101163.69;4996811;28;20053;-77
2024/01/20 10:21:41;;;;;;;0.00;0.00;;;;;;;5.66;67.47;101155.56;4959609;28;20058;-77
2024/01/20 10:24:07;;;;;;;0.00;0.00;;;;;;;5.74;67.94;101158.03;4976470;28;20028;-76
2024/01/20 10:26:43;;;;;;;0.00;0.00;;;;;;;5.93;67.72;101161.69;4944368;28;20134;-75
2024/01/20 10:29:09;;;;;;;0.00;0.00;;;;;;;6.68;67.83;101158.28;4967647;28;20031;-76
2024/01/20 10:31:35;;;;;;;0.00;0.00;;;;;;;7.48;64.05;101143.84;4974454;28;20069;-76
2024/01/20 10:34:01;;;;;;;0.00;0.00;;;;;;;8.82;60.90;101146.53;4972902;28;20038;-75
2024/01/20 10:36:27;;;;;;;0.00;0.00;;;;;;;9.28;56.71;101141.31;4950793;28;20026;-76
2024/01/20 10:38:56;;;;;;;0.00;0.00;;;;;;;9.59;55.60;101140.88;4952225;28;20026;-76
2024/01/20 10:41:24;;;;;;;0.00;0.00;;;;;;;9.60;55.08;101150.72;4983459;28;20034;-76
2024/01/20 10:44:02;;;;;;;0.00;0.00;;;;;;;9.54;55.13;101157.16;4987737;28;20034;-76
2024/01/20 10:46:31;;;;;;;0.00;0.00;;;;;;;9.36;54.70;101155.41;4978978;28;20034;-76
2024/01/20 10:49:00;;;;;;;0.00;0.00;;;;;;;8.90;54.97;101157.09;4990277;28;20473;-76
2024/01/20 10:51:27;;;;;;;0.03;0.03;;;;;;;8.41;56.21;101159.16;4969168;28;20011;-76
2024/01/20 10:53:56;;;;;;;0.10;0.10;;;;;;;8.08;57.43;101149.59;4983069;28;20050;-76
2024/01/20 10:56:29;;;;;;;0.00;0.00;;;;;;;7.69;58.54;101141.72;4954124;28;20026;-77
2024/01/20 10:59:09;;;;;;;0.10;0.10;;;;;;;7.77;59.05;101149.56;4977416;28;20011;-75
2024/01/20 11:01:37;;;;;;;0.00;0.00;;;;;;;7.59;59.71;101130.53;4976799;28;20050;-77
2024/01/20 11:04:06;;;;;;;0.00;0.00;;;;;;;7.43;60.19;101124.69;4959722;28;20041;-76
2024/01/20 11:06:34;;;;;;;0.00;0.00;;;;;;;7.56;60.97;101142.72;4940846;28;20019;-76
2024/01/20 11:09:00;;;;;;;0.00;0.00;;;;;;;7.67;60.58;101138.41;4976466;28;20027;-75
2024/01/20 11:11:27;;;;;;;0.00;0.00;;;;;;;7.82;60.47;101129.81;4977386;28;20022;-75
2024/01/20 11:14:05;;;;;;;0.00;0.00;;;;;;;7.94;59.47;101135.31;4968640;28;20472;-76
2024/01/20 11:16:40;;;;;;;0.00;0.00;;;;;;;7.93;59.51;101122.75;4987588;28;20089;-75
2024/01/20 11:19:08;;;;;;;0.00;0.00;;;;;;;7.82;60.22;101103.41;4965141;28;20019;-76
2024/01/20 11:21:34;;;;;;;0.00;0.00;;;;;;;7.95;59.91;101112.47;4926283;28;20026;-75
2024/01/20 11:24:00;;;;;;;0.00;0.00;;;;;;;7.83;60.00;101105.09;4968620;28;20089;-76
2024/01/20 11:26:33;;;;;;;0.00;0.00;;;;;;;7.62;60.70;101116.47;4974268;28;20030;-76
2024/01/20 11:29:00;;;;;;;0.08;0.08;;;;;;;7.37;61.19;101095.63;4978814;28;20606;-77
2024/01/20 11:31:26;;;;;;;0.10;0.10;;;;;;;7.42;61.39;101103.97;4960612;28;20057;-78
2024/01/20 11:33:52;;;;;;;0.00;0.00;;;;;;;7.49;61.03;101096.53;4944016;28;20019;-77
2024/01/20 11:36:18;;;;;;;0.00;0.00;;;;;;;7.71;61.51;101084.31;4960158;28;20121;-76
2024/01/20 11:38:45;;;;;;;0.00;0.00;;;;;;;8.01;60.23;101100.66;4968170;28;20084;-76